Terminal Aerodrome Forecast
Issued by NWS Twin Cities, MN

Home | Current Version | Previous Version | Text Only | Print | Product List | Glossary Off
Versions: 1 2 3 4 5 6 7 8 9 10 11 12 13 14 15 16 17 18 19 20

000
FTUS43 KMPX 172320
TAFSTC
TAF
KSTC 172320Z 1800/1824 29004KT P6SM FEW120
     FM181100 VRB03KT P6SM BKN110
     FM181500 14007KT P6SM VCSH BKN060 OVC100
     FM181800 15011G17KT P6SM OVC050=

USA.gov is the U.S. government's official web portal to all federal, state and local government web resources and services.